sensor_id;sensor_type;location;lat;lon;timestamp;P1;durP1;ratioP1;P2;durP2;ratioP2
12591;SDS011;6361;52.120;5.108;2024-01-15T00:01:13;11.05;;;1.40;;
12591;SDS011;6361;52.120;5.108;2024-01-15T00:03:38;9.57;;;1.73;;
12591;SDS011;6361;52.120;5.108;2024-01-15T00:06:04;9.45;;;1.83;;
12591;SDS011;6361;52.120;5.108;2024-01-15T00:08:29;10.98;;;1.75;;
12591;SDS011;6361;52.120;5.108;2024-01-15T00:10:55;8.05;;;1.70;;
12591;SDS011;6361;52.120;5.108;2024-01-15T00:13:20;7.82;;;1.30;;
12591;SDS011;6361;52.120;5.108;2024-01-15T00:15:45;10.43;;;1.70;;
12591;SDS011;6361;52.120;5.108;2024-01-15T00:18:11;10.63;;;1.73;;
12591;SDS011;6361;52.120;5.108;2024-01-15T00:20:36;13.48;;;1.80;;
12591;SDS011;6361;52.120;5.108;2024-01-15T00:23:01;14.43;;;1.80;;
12591;SDS011;6361;52.120;5.108;2024-01-15T00:25:27;7.40;;;1.63;;
12591;SDS011;6361;52.120;5.108;2024-01-15T00:27:52;11.32;;;1.75;;
12591;SDS011;6361;52.120;5.108;2024-01-15T00:30:17;14.10;;;1.88;;
12591;SDS011;6361;52.120;5.108;2024-01-15T00:32:43;13.00;;;1.70;;
12591;SDS011;6361;52.120;5.108;2024-01-15T00:35:08;14.43;;;1.52;;
12591;SDS011;6361;52.120;5.108;2024-01-15T00:37:34;13.60;;;1.80;;
12591;SDS011;6361;52.120;5.108;2024-01-15T00:39:59;10.15;;;1.65;;
12591;SDS011;6361;52.120;5.108;2024-01-15T00:42:24;11.65;;;1.50;;
12591;SDS011;6361;52.120;5.108;2024-01-15T00:44:50;12.35;;;1.35;;
12591;SDS011;6361;52.120;5.108;2024-01-15T00:47:15;9.85;;;1.83;;
12591;SDS011;6361;52.120;5.108;2024-01-15T00:49:40;10.05;;;1.60;;
12591;SDS011;6361;52.120;5.108;2024-01-15T00:52:06;13.50;;;1.60;;
12591;SDS011;6361;52.120;5.108;2024-01-15T00:54:31;15.30;;;1.75;;
12591;SDS011;6361;52.120;5.108;2024-01-15T00:56:56;9.50;;;1.80;;
12591;SDS011;6361;52.120;5.108;2024-01-15T00:59:22;13.93;;;1.45;;
12591;SDS011;6361;52.120;5.108;2024-01-15T01:01:47;12.27;;;1.65;;
12591;SDS011;6361;52.120;5.108;2024-01-15T01:04:12;11.50;;;1.77;;
12591;SDS011;6361;52.120;5.108;2024-01-15T01:06:38;10.70;;;1.27;;
12591;SDS011;6361;52.120;5.108;2024-01-15T01:09:03;9.70;;;1.67;;
12591;SDS011;6361;52.120;5.108;2024-01-15T01:11:30;10.75;;;1.20;;
12591;SDS011;6361;52.120;5.108;2024-01-15T01:13:55;13.38;;;1.65;;
12591;SDS011;6361;52.120;5.108;2024-01-15T01:16:21;8.68;;;1.15;;
12591;SDS011;6361;52.120;5.108;2024-01-15T01:18:47;12.98;;;1.40;;
12591;SDS011;6361;52.120;5.108;2024-01-15T01:21:12;7.93;;;1.60;;
12591;SDS011;6361;52.120;5.108;2024-01-15T01:23:37;6.70;;;1.25;;
12591;SDS011;6361;52.120;5.108;2024-01-15T01:26:03;10.15;;;1.42;;
12591;SDS011;6361;52.120;5.108;2024-01-15T01:28:28;7.82;;;1.27;;
12591;SDS011;6361;52.120;5.108;2024-01-15T01:30:53;6.90;;;0.98;;
12591;SDS011;6361;52.120;5.108;2024-01-15T01:33:19;8.50;;;1.45;;
12591;SDS011;6361;52.120;5.108;2024-01-15T01:35:44;9.77;;;1.38;;
12591;SDS011;6361;52.120;5.108;2024-01-15T01:38:10;7.45;;;1.52;;
12591;SDS011;6361;52.120;5.108;2024-01-15T01:40:35;7.20;;;1.27;;
12591;SDS011;6361;52.120;5.108;2024-01-15T01:43:02;8.57;;;1.48;;
12591;SDS011;6361;52.120;5.108;2024-01-15T01:45:28;9.95;;;1.70;;
12591;SDS011;6361;52.120;5.108;2024-01-15T01:47:53;10.80;;;1.58;;
12591;SDS011;6361;52.120;5.108;2024-01-15T01:50:19;10.07;;;1.10;;
12591;SDS011;6361;52.120;5.108;2024-01-15T01:52:44;7.10;;;1.30;;
12591;SDS011;6361;52.120;5.108;2024-01-15T01:55:10;9.57;;;1.30;;
12591;SDS011;6361;52.120;5.108;2024-01-15T01:57:36;11.35;;;1.40;;
12591;SDS011;6361;52.120;5.108;2024-01-15T02:00:02;10.60;;;1.10;;
12591;SDS011;6361;52.120;5.108;2024-01-15T02:02:29;6.63;;;1.20;;
12591;SDS011;6361;52.120;5.108;2024-01-15T02:04:54;10.70;;;1.60;;
12591;SDS011;6361;52.120;5.108;2024-01-15T02:07:20;10.55;;;1.30;;
12591;SDS011;6361;52.120;5.108;2024-01-15T02:09:45;9.43;;;1.17;;
12591;SDS011;6361;52.120;5.108;2024-01-15T02:12:11;9.98;;;1.30;;
12591;SDS011;6361;52.120;5.108;2024-01-15T02:14:36;8.70;;;1.50;;
12591;SDS011;6361;52.120;5.108;2024-01-15T02:17:02;7.93;;;1.85;;
12591;SDS011;6361;52.120;5.108;2024-01-15T02:19:27;9.75;;;1.40;;
12591;SDS011;6361;52.120;5.108;2024-01-15T02:21:53;8.38;;;1.10;;
12591;SDS011;6361;52.120;5.108;2024-01-15T02:24:20;8.85;;;1.20;;
12591;SDS011;6361;52.120;5.108;2024-01-15T02:26:46;6.75;;;1.38;;
12591;SDS011;6361;52.120;5.108;2024-01-15T02:29:11;7.07;;;1.00;;
12591;SDS011;6361;52.120;5.108;2024-01-15T02:31:37;4.38;;;1.10;;
12591;SDS011;6361;52.120;5.108;2024-01-15T02:34:02;9.23;;;1.08;;
12591;SDS011;6361;52.120;5.108;2024-01-15T02:36:28;5.82;;;1.00;;
12591;SDS011;6361;52.120;5.108;2024-01-15T02:38:53;6.65;;;1.42;;
12591;SDS011;6361;52.120;5.108;2024-01-15T02:41:18;8.57;;;1.05;;
12591;SDS011;6361;52.120;5.108;2024-01-15T02:43:44;7.15;;;1.00;;
12591;SDS011;6361;52.120;5.108;2024-01-15T02:46:09;10.13;;;0.80;;
12591;SDS011;6361;52.120;5.108;2024-01-15T02:48:35;5.35;;;0.73;;
12591;SDS011;6361;52.120;5.108;2024-01-15T02:51:00;3.38;;;0.80;;
12591;SDS011;6361;52.120;5.108;2024-01-15T02:53:26;7.95;;;1.05;;
12591;SDS011;6361;52.120;5.108;2024-01-15T02:55:51;6.28;;;1.08;;
12591;SDS011;6361;52.120;5.108;2024-01-15T02:58:17;7.88;;;0.90;;
12591;SDS011;6361;52.120;5.108;2024-01-15T03:00:42;6.10;;;0.82;;
12591;SDS011;6361;52.120;5.108;2024-01-15T03:03:08;5.75;;;0.95;;
12591;SDS011;6361;52.120;5.108;2024-01-15T03:05:33;8.75;;;0.85;;
12591;SDS011;6361;52.120;5.108;2024-01-15T03:07:59;8.43;;;1.30;;
12591;SDS011;6361;52.120;5.108;2024-01-15T03:10:24;7.65;;;0.80;;
12591;SDS011;6361;52.120;5.108;2024-01-15T03:12:49;4.95;;;1.08;;
12591;SDS011;6361;52.120;5.108;2024-01-15T03:15:15;6.68;;;1.17;;
12591;SDS011;6361;52.120;5.108;2024-01-15T03:17:43;5.63;;;1.00;;
12591;SDS011;6361;52.120;5.108;2024-01-15T03:20:09;6.47;;;1.00;;
12591;SDS011;6361;52.120;5.108;2024-01-15T03:22:35;5.22;;;0.80;;
12591;SDS011;6361;52.120;5.108;2024-01-15T03:25:00;8.95;;;1.00;;
12591;SDS011;6361;52.120;5.108;2024-01-15T03:27:26;6.68;;;1.00;;
12591;SDS011;6361;52.120;5.108;2024-01-15T03:29:51;11.15;;;1.08;;
12591;SDS011;6361;52.120;5.108;2024-01-15T03:32:17;6.50;;;0.98;;
12591;SDS011;6361;52.120;5.108;2024-01-15T03:34:42;5.47;;;1.10;;
12591;SDS011;6361;52.120;5.108;2024-01-15T03:37:08;6.25;;;0.98;;
12591;SDS011;6361;52.120;5.108;2024-01-15T03:39:33;6.07;;;1.17;;
12591;SDS011;6361;52.120;5.108;2024-01-15T03:41:58;6.35;;;1.20;;
12591;SDS011;6361;52.120;5.108;2024-01-15T03:44:24;6.75;;;0.85;;
12591;SDS011;6361;52.120;5.108;2024-01-15T03:46:50;6.40;;;1.20;;
12591;SDS011;6361;52.120;5.108;2024-01-15T03:49:15;9.63;;;1.00;;
12591;SDS011;6361;52.120;5.108;2024-01-15T03:51:41;12.57;;;1.00;;
12591;SDS011;6361;52.120;5.108;2024-01-15T03:54:06;8.85;;;1.35;;
12591;SDS011;6361;52.120;5.108;2024-01-15T03:56:31;6.22;;;0.85;;
12591;SDS011;6361;52.120;5.108;2024-01-15T03:58:57;10.68;;;1.13;;
12591;SDS011;6361;52.120;5.108;2024-01-15T04:01:22;6.63;;;1.00;;
12591;SDS011;6361;52.120;5.108;2024-01-15T04:03:48;7.90;;;1.20;;
12591;SDS011;6361;52.120;5.108;2024-01-15T04:06:13;9.95;;;1.20;;
12591;SDS011;6361;52.120;5.108;2024-01-15T04:08:38;8.77;;;1.13;;
12591;SDS011;6361;52.120;5.108;2024-01-15T04:11:04;9.43;;;1.20;;
12591;SDS011;6361;52.120;5.108;2024-01-15T04:13:32;9.70;;;1.17;;
12591;SDS011;6361;52.120;5.108;2024-01-15T04:15:57;9.25;;;1.17;;
12591;SDS011;6361;52.120;5.108;2024-01-15T04:18:23;8.50;;;1.10;;
12591;SDS011;6361;52.120;5.108;2024-01-15T04:20:48;5.70;;;1.23;;
12591;SDS011;6361;52.120;5.108;2024-01-15T04:23:13;6.20;;;1.13;;
12591;SDS011;6361;52.120;5.108;2024-01-15T04:25:39;7.68;;;1.23;;
12591;SDS011;6361;52.120;5.108;2024-01-15T04:28:07;9.43;;;1.17;;
12591;SDS011;6361;52.120;5.108;2024-01-15T04:30:35;8.23;;;0.93;;
12591;SDS011;6361;52.120;5.108;2024-01-15T04:33:03;7.75;;;1.10;;
12591;SDS011;6361;52.120;5.108;2024-01-15T04:35:29;7.57;;;1.00;;
12591;SDS011;6361;52.120;5.108;2024-01-15T04:37:55;7.88;;;1.30;;
12591;SDS011;6361;52.120;5.108;2024-01-15T04:40:21;4.97;;;0.80;;
12591;SDS011;6361;52.120;5.108;2024-01-15T04:42:46;7.63;;;1.00;;
12591;SDS011;6361;52.120;5.108;2024-01-15T04:45:11;8.05;;;1.10;;
12591;SDS011;6361;52.120;5.108;2024-01-15T04:47:37;7.05;;;1.60;;
12591;SDS011;6361;52.120;5.108;2024-01-15T04:50:03;7.63;;;1.10;;
12591;SDS011;6361;52.120;5.108;2024-01-15T04:52:29;7.40;;;0.80;;
12591;SDS011;6361;52.120;5.108;2024-01-15T04:54:54;5.78;;;1.05;;
12591;SDS011;6361;52.120;5.108;2024-01-15T04:57:20;8.45;;;0.90;;
12591;SDS011;6361;52.120;5.108;2024-01-15T04:59:45;6.90;;;0.95;;
12591;SDS011;6361;52.120;5.108;2024-01-15T05:02:10;4.28;;;0.93;;
12591;SDS011;6361;52.120;5.108;2024-01-15T05:04:36;5.85;;;1.02;;
12591;SDS011;6361;52.120;5.108;2024-01-15T05:07:01;7.75;;;1.02;;
12591;SDS011;6361;52.120;5.108;2024-01-15T05:09:26;9.85;;;1.50;;
12591;SDS011;6361;52.120;5.108;2024-01-15T05:11:52;6.45;;;1.10;;
12591;SDS011;6361;52.120;5.108;2024-01-15T05:14:17;9.20;;;1.20;;
12591;SDS011;6361;52.120;5.108;2024-01-15T05:16:48;4.75;;;0.75;;
12591;SDS011;6361;52.120;5.108;2024-01-15T05:19:14;4.22;;;1.20;;
12591;SDS011;6361;52.120;5.108;2024-01-15T05:21:39;8.63;;;1.00;;
12591;SDS011;6361;52.120;5.108;2024-01-15T05:24:05;7.88;;;1.15;;
12591;SDS011;6361;52.120;5.108;2024-01-15T05:26:30;8.18;;;1.10;;
12591;SDS011;6361;52.120;5.108;2024-01-15T05:28:55;8.55;;;0.77;;
12591;SDS011;6361;52.120;5.108;2024-01-15T05:31:21;6.38;;;0.85;;
12591;SDS011;6361;52.120;5.108;2024-01-15T05:33:46;4.40;;;0.90;;
12591;SDS011;6361;52.120;5.108;2024-01-15T05:36:11;3.92;;;0.88;;
12591;SDS011;6361;52.120;5.108;2024-01-15T05:38:37;5.90;;;0.88;;
12591;SDS011;6361;52.120;5.108;2024-01-15T05:41:02;3.25;;;0.82;;
12591;SDS011;6361;52.120;5.108;2024-01-15T05:43:28;6.50;;;0.95;;
12591;SDS011;6361;52.120;5.108;2024-01-15T05:45:53;4.38;;;0.90;;
12591;SDS011;6361;52.120;5.108;2024-01-15T05:48:18;3.53;;;0.77;;
12591;SDS011;6361;52.120;5.108;2024-01-15T05:50:44;4.63;;;1.05;;
12591;SDS011;6361;52.120;5.108;2024-01-15T05:53:09;2.83;;;0.80;;
12591;SDS011;6361;52.120;5.108;2024-01-15T05:55:35;4.78;;;1.10;;
12591;SDS011;6361;52.120;5.108;2024-01-15T05:58:02;5.65;;;0.90;;
12591;SDS011;6361;52.120;5.108;2024-01-15T06:00:27;9.35;;;0.90;;
12591;SDS011;6361;52.120;5.108;2024-01-15T06:02:52;4.95;;;0.98;;
12591;SDS011;6361;52.120;5.108;2024-01-15T06:05:18;4.72;;;0.82;;
12591;SDS011;6361;52.120;5.108;2024-01-15T06:07:43;7.13;;;1.20;;
12591;SDS011;6361;52.120;5.108;2024-01-15T06:10:08;7.03;;;1.10;;
12591;SDS011;6361;52.120;5.108;2024-01-15T06:12:35;3.67;;;1.30;;
12591;SDS011;6361;52.120;5.108;2024-01-15T06:15:00;5.90;;;1.08;;
12591;SDS011;6361;52.120;5.108;2024-01-15T06:17:26;9.93;;;1.30;;
12591;SDS011;6361;52.120;5.108;2024-01-15T06:19:51;5.10;;;1.20;;
12591;SDS011;6361;52.120;5.108;2024-01-15T06:22:17;8.25;;;1.02;;
12591;SDS011;6361;52.120;5.108;2024-01-15T06:24:42;4.10;;;0.90;;
12591;SDS011;6361;52.120;5.108;2024-01-15T06:27:09;8.52;;;1.10;;
12591;SDS011;6361;52.120;5.108;2024-01-15T06:29:37;9.90;;;1.90;;
12591;SDS011;6361;52.120;5.108;2024-01-15T06:32:03;3.30;;;1.02;;
12591;SDS011;6361;52.120;5.108;2024-01-15T06:34:29;8.15;;;1.30;;
12591;SDS011;6361;52.120;5.108;2024-01-15T06:36:54;3.80;;;1.15;;
12591;SDS011;6361;52.120;5.108;2024-01-15T06:39:19;8.98;;;1.30;;
12591;SDS011;6361;52.120;5.108;2024-01-15T06:41:45;9.38;;;1.40;;
12591;SDS011;6361;52.120;5.108;2024-01-15T06:44:10;8.65;;;1.65;;
12591;SDS011;6361;52.120;5.108;2024-01-15T06:46:36;6.45;;;1.58;;
12591;SDS011;6361;52.120;5.108;2024-01-15T06:49:01;7.30;;;1.45;;
12591;SDS011;6361;52.120;5.108;2024-01-15T06:51:27;5.97;;;1.40;;
12591;SDS011;6361;52.120;5.108;2024-01-15T06:53:54;7.28;;;1.50;;
12591;SDS011;6361;52.120;5.108;2024-01-15T06:56:19;6.50;;;1.73;;
12591;SDS011;6361;52.120;5.108;2024-01-15T06:58:44;8.07;;;1.67;;
12591;SDS011;6361;52.120;5.108;2024-01-15T07:01:10;9.52;;;1.50;;
12591;SDS011;6361;52.120;5.108;2024-01-15T07:03:35;10.93;;;1.10;;
12591;SDS011;6361;52.120;5.108;2024-01-15T07:06:00;4.97;;;1.05;;
12591;SDS011;6361;52.120;5.108;2024-01-15T07:08:26;5.55;;;1.20;;
12591;SDS011;6361;52.120;5.108;2024-01-15T07:10:51;3.90;;;0.95;;
12591;SDS011;6361;52.120;5.108;2024-01-15T07:13:17;4.47;;;1.20;;
12591;SDS011;6361;52.120;5.108;2024-01-15T07:15:42;5.80;;;1.10;;
12591;SDS011;6361;52.120;5.108;2024-01-15T07:18:08;4.88;;;1.05;;
12591;SDS011;6361;52.120;5.108;2024-01-15T07:20:33;4.20;;;1.13;;
12591;SDS011;6361;52.120;5.108;2024-01-15T07:22:59;7.50;;;1.30;;
12591;SDS011;6361;52.120;5.108;2024-01-15T07:25:24;5.97;;;1.20;;
12591;SDS011;6361;52.120;5.108;2024-01-15T07:27:51;8.27;;;1.20;;
12591;SDS011;6361;52.120;5.108;2024-01-15T07:30:16;3.15;;;1.10;;
12591;SDS011;6361;52.120;5.108;2024-01-15T07:32:42;7.78;;;1.00;;
12591;SDS011;6361;52.120;5.108;2024-01-15T07:35:07;4.72;;;0.80;;
12591;SDS011;6361;52.120;5.108;2024-01-15T07:37:33;6.40;;;1.25;;
12591;SDS011;6361;52.120;5.108;2024-01-15T07:39:58;4.57;;;1.05;;
12591;SDS011;6361;52.120;5.108;2024-01-15T07:42:24;8.60;;;1.40;;
12591;SDS011;6361;52.120;5.108;2024-01-15T07:44:49;11.80;;;1.27;;
12591;SDS011;6361;52.120;5.108;2024-01-15T07:47:16;8.02;;;1.10;;
12591;SDS011;6361;52.120;5.108;2024-01-15T07:49:42;8.43;;;1.40;;
12591;SDS011;6361;52.120;5.108;2024-01-15T07:52:07;7.22;;;1.08;;
12591;SDS011;6361;52.120;5.108;2024-01-15T07:54:32;4.68;;;1.20;;
12591;SDS011;6361;52.120;5.108;2024-01-15T07:57:01;6.28;;;0.95;;
12591;SDS011;6361;52.120;5.108;2024-01-15T07:59:28;6.03;;;1.20;;
12591;SDS011;6361;52.120;5.108;2024-01-15T08:01:53;7.20;;;1.38;;
12591;SDS011;6361;52.120;5.108;2024-01-15T08:04:19;8.23;;;1.20;;
12591;SDS011;6361;52.120;5.108;2024-01-15T08:06:45;6.30;;;1.23;;
12591;SDS011;6361;52.120;5.108;2024-01-15T08:09:11;9.82;;;1.50;;
12591;SDS011;6361;52.120;5.108;2024-01-15T08:11:41;12.48;;;1.50;;
12591;SDS011;6361;52.120;5.108;2024-01-15T08:14:07;7.32;;;1.25;;
12591;SDS011;6361;52.120;5.108;2024-01-15T08:16:32;6.68;;;1.27;;
12591;SDS011;6361;52.120;5.108;2024-01-15T08:18:58;7.97;;;1.70;;
12591;SDS011;6361;52.120;5.108;2024-01-15T08:21:24;6.95;;;1.48;;
12591;SDS011;6361;52.120;5.108;2024-01-15T08:23:49;6.43;;;1.50;;
12591;SDS011;6361;52.120;5.108;2024-01-15T08:26:14;8.57;;;1.50;;
12591;SDS011;6361;52.120;5.108;2024-01-15T08:28:40;8.95;;;1.60;;
12591;SDS011;6361;52.120;5.108;2024-01-15T08:31:05;7.88;;;1.50;;
12591;SDS011;6361;52.120;5.108;2024-01-15T08:33:30;11.23;;;2.15;;
12591;SDS011;6361;52.120;5.108;2024-01-15T08:35:56;11.77;;;1.77;;
12591;SDS011;6361;52.120;5.108;2024-01-15T08:38:21;6.53;;;1.15;;
12591;SDS011;6361;52.120;5.108;2024-01-15T08:40:47;5.70;;;1.17;;
12591;SDS011;6361;52.120;5.108;2024-01-15T08:43:14;6.50;;;1.23;;
12591;SDS011;6361;52.120;5.108;2024-01-15T08:45:39;14.88;;;1.80;;
12591;SDS011;6361;52.120;5.108;2024-01-15T08:48:04;5.65;;;1.35;;
12591;SDS011;6361;52.120;5.108;2024-01-15T08:50:30;7.43;;;1.20;;
12591;SDS011;6361;52.120;5.108;2024-01-15T08:52:57;7.93;;;1.77;;
12591;SDS011;6361;52.120;5.108;2024-01-15T08:55:24;6.47;;;1.60;;
12591;SDS011;6361;52.120;5.108;2024-01-15T08:57:49;6.45;;;1.00;;
12591;SDS011;6361;52.120;5.108;2024-01-15T09:00:15;5.00;;;1.10;;
12591;SDS011;6361;52.120;5.108;2024-01-15T09:02:41;6.95;;;1.00;;
12591;SDS011;6361;52.120;5.108;2024-01-15T09:05:07;7.45;;;1.02;;
12591;SDS011;6361;52.120;5.108;2024-01-15T09:07:33;6.70;;;0.80;;
12591;SDS011;6361;52.120;5.108;2024-01-15T09:09:58;8.55;;;1.27;;
12591;SDS011;6361;52.120;5.108;2024-01-15T09:12:26;9.57;;;1.17;;
12591;SDS011;6361;52.120;5.108;2024-01-15T09:14:52;7.68;;;1.17;;
12591;SDS011;6361;52.120;5.108;2024-01-15T09:17:18;10.43;;;1.33;;
12591;SDS011;6361;52.120;5.108;2024-01-15T09:19:48;8.90;;;1.13;;
12591;SDS011;6361;52.120;5.108;2024-01-15T09:22:14;5.53;;;1.20;;
12591;SDS011;6361;52.120;5.108;2024-01-15T09:24:43;4.65;;;1.40;;
12591;SDS011;6361;52.120;5.108;2024-01-15T09:27:08;10.27;;;1.90;;
12591;SDS011;6361;52.120;5.108;2024-01-15T09:29:34;8.80;;;1.95;;
12591;SDS011;6361;52.120;5.108;2024-01-15T09:32:01;7.30;;;1.42;;
12591;SDS011;6361;52.120;5.108;2024-01-15T09:34:28;7.30;;;1.67;;
12591;SDS011;6361;52.120;5.108;2024-01-15T09:36:53;11.57;;;2.35;;
12591;SDS011;6361;52.120;5.108;2024-01-15T09:39:19;11.98;;;2.17;;
12591;SDS011;6361;52.120;5.108;2024-01-15T09:41:44;13.07;;;1.70;;
12591;SDS011;6361;52.120;5.108;2024-01-15T09:44:09;8.45;;;1.63;;
12591;SDS011;6361;52.120;5.108;2024-01-15T09:46:35;6.55;;;1.70;;
12591;SDS011;6361;52.120;5.108;2024-01-15T09:49:01;12.77;;;1.92;;
12591;SDS011;6361;52.120;5.108;2024-01-15T09:51:27;13.57;;;1.73;;
12591;SDS011;6361;52.120;5.108;2024-01-15T09:53:57;12.93;;;1.75;;
12591;SDS011;6361;52.120;5.108;2024-01-15T09:56:22;9.63;;;1.23;;
12591;SDS011;6361;52.120;5.108;2024-01-15T09:58:48;8.77;;;1.60;;
12591;SDS011;6361;52.120;5.108;2024-01-15T10:01:14;6.80;;;1.13;;
12591;SDS011;6361;52.120;5.108;2024-01-15T10:03:41;10.00;;;1.40;;
12591;SDS011;6361;52.120;5.108;2024-01-15T10:06:06;7.15;;;1.60;;
12591;SDS011;6361;52.120;5.108;2024-01-15T10:08:33;6.38;;;1.13;;
12591;SDS011;6361;52.120;5.108;2024-01-15T10:11:00;7.38;;;1.33;;
12591;SDS011;6361;52.120;5.108;2024-01-15T10:13:26;7.35;;;1.10;;
12591;SDS011;6361;52.120;5.108;2024-01-15T10:15:51;8.75;;;1.38;;
12591;SDS011;6361;52.120;5.108;2024-01-15T10:18:18;10.48;;;1.38;;
12591;SDS011;6361;52.120;5.108;2024-01-15T10:20:43;17.70;;;1.60;;
12591;SDS011;6361;52.120;5.108;2024-01-15T10:23:08;8.32;;;1.20;;
12591;SDS011;6361;52.120;5.108;2024-01-15T10:25:35;9.73;;;1.27;;
12591;SDS011;6361;52.120;5.108;2024-01-15T10:28:01;9.85;;;1.80;;
12591;SDS011;6361;52.120;5.108;2024-01-15T10:30:28;6.55;;;1.25;;
12591;SDS011;6361;52.120;5.108;2024-01-15T10:33:02;5.88;;;1.05;;
12591;SDS011;6361;52.120;5.108;2024-01-15T10:35:29;13.95;;;1.80;;
12591;SDS011;6361;52.120;5.108;2024-01-15T10:37:56;8.30;;;1.30;;
12591;SDS011;6361;52.120;5.108;2024-01-15T10:40:22;6.90;;;1.25;;
12591;SDS011;6361;52.120;5.108;2024-01-15T10:42:48;7.22;;;1.20;;
12591;SDS011;6361;52.120;5.108;2024-01-15T10:45:13;11.98;;;1.38;;
12591;SDS011;6361;52.120;5.108;2024-01-15T10:47:39;8.32;;;1.70;;
12591;SDS011;6361;52.120;5.108;2024-01-15T10:50:06;9.13;;;1.00;;
12591;SDS011;6361;52.120;5.108;2024-01-15T10:52:35;8.73;;;1.42;;
12591;SDS011;6361;52.120;5.108;2024-01-15T10:55:08;12.93;;;1.48;;
12591;SDS011;6361;52.120;5.108;2024-01-15T10:57:34;11.40;;;1.60;;
12591;SDS011;6361;52.120;5.108;2024-01-15T11:00:01;11.07;;;1.70;;
12591;SDS011;6361;52.120;5.108;2024-01-15T11:02:30;14.98;;;1.75;;
12591;SDS011;6361;52.120;5.108;2024-01-15T11:04:57;10.80;;;1.30;;
12591;SDS011;6361;52.120;5.108;2024-01-15T11:07:24;7.93;;;1.30;;
12591;SDS011;6361;52.120;5.108;2024-01-15T11:09:52;10.15;;;1.40;;
12591;SDS011;6361;52.120;5.108;2024-01-15T11:12:17;6.32;;;0.95;;
12591;SDS011;6361;52.120;5.108;2024-01-15T11:14:46;6.53;;;1.25;;
12591;SDS011;6361;52.120;5.108;2024-01-15T11:17:12;5.97;;;1.10;;
12591;SDS011;6361;52.120;5.108;2024-01-15T11:19:48;9.10;;;1.10;;
12591;SDS011;6361;52.120;5.108;2024-01-15T11:24:54;5.13;;;0.82;;
12591;SDS011;6361;52.120;5.108;2024-01-15T11:27:39;3.67;;;0.80;;
12591;SDS011;6361;52.120;5.108;2024-01-15T11:30:07;10.27;;;0.90;;
12591;SDS011;6361;52.120;5.108;2024-01-15T11:32:36;4.35;;;0.88;;
12591;SDS011;6361;52.120;5.108;2024-01-15T11:35:08;7.65;;;1.40;;
12591;SDS011;6361;52.120;5.108;2024-01-15T11:42:58;4.47;;;1.15;;
12591;SDS011;6361;52.120;5.108;2024-01-15T11:45:24;6.40;;;0.82;;
12591;SDS011;6361;52.120;5.108;2024-01-15T11:50:50;5.93;;;1.25;;
12591;SDS011;6361;52.120;5.108;2024-01-15T11:56:14;6.22;;;1.30;;
12591;SDS011;6361;52.120;5.108;2024-01-15T11:58:41;6.25;;;1.40;;
12591;SDS011;6361;52.120;5.108;2024-01-15T12:01:07;3.67;;;1.10;;
12591;SDS011;6361;52.120;5.108;2024-01-15T12:03:33;8.07;;;1.08;;
12591;SDS011;6361;52.120;5.108;2024-01-15T12:06:01;4.80;;;1.08;;
12591;SDS011;6361;52.120;5.108;2024-01-15T12:08:27;8.73;;;1.58;;
12591;SDS011;6361;52.120;5.108;2024-01-15T12:10:52;4.93;;;1.42;;
12591;SDS011;6361;52.120;5.108;2024-01-15T12:13:18;5.75;;;1.52;;
12591;SDS011;6361;52.120;5.108;2024-01-15T12:15:46;3.60;;;1.15;;
12591;SDS011;6361;52.120;5.108;2024-01-15T12:18:13;5.78;;;1.38;;
12591;SDS011;6361;52.120;5.108;2024-01-15T12:20:43;4.55;;;1.10;;
12591;SDS011;6361;52.120;5.108;2024-01-15T12:23:11;6.47;;;1.35;;
12591;SDS011;6361;52.120;5.108;2024-01-15T12:25:38;6.18;;;1.27;;
12591;SDS011;6361;52.120;5.108;2024-01-15T12:28:04;3.05;;;1.40;;
12591;SDS011;6361;52.120;5.108;2024-01-15T12:30:30;7.88;;;1.48;;
12591;SDS011;6361;52.120;5.108;2024-01-15T12:33:05;6.75;;;1.52;;
12591;SDS011;6361;52.120;5.108;2024-01-15T12:35:35;5.63;;;1.42;;
12591;SDS011;6361;52.120;5.108;2024-01-15T12:38:01;7.70;;;1.58;;
12591;SDS011;6361;52.120;5.108;2024-01-15T12:40:27;11.40;;;1.63;;
12591;SDS011;6361;52.120;5.108;2024-01-15T12:42:53;13.30;;;1.50;;
12591;SDS011;6361;52.120;5.108;2024-01-15T12:45:18;9.35;;;1.70;;
12591;SDS011;6361;52.120;5.108;2024-01-15T12:47:44;7.90;;;1.63;;
12591;SDS011;6361;52.120;5.108;2024-01-15T12:50:10;10.32;;;1.63;;
12591;SDS011;6361;52.120;5.108;2024-01-15T12:52:37;8.43;;;1.30;;
12591;SDS011;6361;52.120;5.108;2024-01-15T12:55:05;9.15;;;1.40;;
12591;SDS011;6361;52.120;5.108;2024-01-15T12:57:32;7.70;;;1.58;;
12591;SDS011;6361;52.120;5.108;2024-01-15T12:59:57;8.48;;;1.40;;
12591;SDS011;6361;52.120;5.108;2024-01-15T13:02:23;7.38;;;1.35;;
12591;SDS011;6361;52.120;5.108;2024-01-15T13:04:48;12.48;;;1.67;;
12591;SDS011;6361;52.120;5.108;2024-01-15T13:07:14;9.15;;;1.67;;
12591;SDS011;6361;52.120;5.108;2024-01-15T13:09:39;9.93;;;1.83;;
12591;SDS011;6361;52.120;5.108;2024-01-15T13:12:05;12.57;;;1.75;;
12591;SDS011;6361;52.120;5.108;2024-01-15T13:14:31;9.05;;;1.77;;
12591;SDS011;6361;52.120;5.108;2024-01-15T13:16:56;12.13;;;2.03;;
12591;SDS011;6361;52.120;5.108;2024-01-15T13:19:23;8.82;;;1.70;;
12591;SDS011;6361;52.120;5.108;2024-01-15T13:21:49;10.85;;;2.05;;
12591;SDS011;6361;52.120;5.108;2024-01-15T13:24:18;5.22;;;1.50;;
12591;SDS011;6361;52.120;5.108;2024-01-15T13:26:43;11.98;;;3.88;;
12591;SDS011;6361;52.120;5.108;2024-01-15T13:29:09;6.75;;;1.40;;
12591;SDS011;6361;52.120;5.108;2024-01-15T13:31:34;12.57;;;1.50;;
12591;SDS011;6361;52.120;5.108;2024-01-15T13:34:00;7.75;;;1.40;;
12591;SDS011;6361;52.120;5.108;2024-01-15T13:36:26;11.23;;;1.58;;
12591;SDS011;6361;52.120;5.108;2024-01-15T13:38:51;8.38;;;1.67;;
12591;SDS011;6361;52.120;5.108;2024-01-15T13:41:18;6.38;;;1.50;;
12591;SDS011;6361;52.120;5.108;2024-01-15T13:43:50;9.65;;;1.77;;
12591;SDS011;6361;52.120;5.108;2024-01-15T13:46:17;12.70;;;1.55;;
12591;SDS011;6361;52.120;5.108;2024-01-15T13:48:43;9.50;;;1.40;;
12591;SDS011;6361;52.120;5.108;2024-01-15T13:51:09;6.32;;;1.52;;
12591;SDS011;6361;52.120;5.108;2024-01-15T13:53:37;13.98;;;1.75;;
12591;SDS011;6361;52.120;5.108;2024-01-15T13:56:03;12.38;;;1.92;;
12591;SDS011;6361;52.120;5.108;2024-01-15T13:58:29;8.23;;;1.33;;
12591;SDS011;6361;52.120;5.108;2024-01-15T14:00:55;12.32;;;1.60;;
12591;SDS011;6361;52.120;5.108;2024-01-15T14:03:20;13.90;;;1.92;;
12591;SDS011;6361;52.120;5.108;2024-01-15T14:05:46;9.43;;;1.88;;
12591;SDS011;6361;52.120;5.108;2024-01-15T14:08:11;11.20;;;1.80;;
12591;SDS011;6361;52.120;5.108;2024-01-15T14:10:36;8.23;;;1.52;;
12591;SDS011;6361;52.120;5.108;2024-01-15T14:13:02;11.30;;;1.77;;
12591;SDS011;6361;52.120;5.108;2024-01-15T14:15:28;10.45;;;1.65;;
12591;SDS011;6361;52.120;5.108;2024-01-15T14:17:54;7.85;;;1.55;;
12591;SDS011;6361;52.120;5.108;2024-01-15T14:20:19;11.10;;;1.98;;
12591;SDS011;6361;52.120;5.108;2024-01-15T14:22:44;8.60;;;2.10;;
12591;SDS011;6361;52.120;5.108;2024-01-15T14:25:10;14.55;;;2.50;;
12591;SDS011;6361;52.120;5.108;2024-01-15T14:27:35;11.07;;;2.38;;
12591;SDS011;6361;52.120;5.108;2024-01-15T14:30:01;14.32;;;1.90;;
12591;SDS011;6361;52.120;5.108;2024-01-15T14:32:27;13.60;;;2.13;;
12591;SDS011;6361;52.120;5.108;2024-01-15T14:34:53;12.55;;;2.45;;
12591;SDS011;6361;52.120;5.108;2024-01-15T14:37:18;13.27;;;1.98;;
12591;SDS011;6361;52.120;5.108;2024-01-15T14:39:44;12.23;;;3.17;;
12591;SDS011;6361;52.120;5.108;2024-01-15T14:42:09;11.60;;;2.00;;
12591;SDS011;6361;52.120;5.108;2024-01-15T14:44:34;11.90;;;2.00;;
12591;SDS011;6361;52.120;5.108;2024-01-15T14:47:00;17.50;;;2.05;;
12591;SDS011;6361;52.120;5.108;2024-01-15T14:49:25;15.15;;;2.47;;
12591;SDS011;6361;52.120;5.108;2024-01-15T14:51:51;14.88;;;1.77;;
12591;SDS011;6361;52.120;5.108;2024-01-15T14:54:16;13.63;;;2.00;;
12591;SDS011;6361;52.120;5.108;2024-01-15T14:56:41;10.98;;;1.98;;
12591;SDS011;6361;52.120;5.108;2024-01-15T14:59:08;14.50;;;2.10;;
12591;SDS011;6361;52.120;5.108;2024-01-15T15:01:33;9.43;;;1.83;;
12591;SDS011;6361;52.120;5.108;2024-01-15T15:03:59;8.68;;;1.38;;